Time;durP1;ratioP1;P1;durP2;ratioP2;P2;SDS_P1;SDS_P2;PMS_P1;PMS_P2;Temp;Humidity;BMP_temperature;BMP_pressure;BME280_temperature;BME280_humidity;BME280_pressure;Samples;Min_cycle;Max_cycle;Signal;HPM_P1;HPM_P2
2023/09/23 00:00:19;;;;;;;9.68;6.83;;;;;;;19.75;63.52;100476.23;1783800;80;21023;-79
2023/09/23 00:02:49;;;;;;;12.18;7.40;;;;;;;19.72;63.76;100478.13;1782620;80;21073;-84
2023/09/23 00:05:18;;;;;;;12.10;7.05;;;;;;;19.68;63.99;100468.06;1780971;80;21010;-82
2023/09/23 00:07:49;;;;;;;11.38;6.80;;;;;;;19.66;64.18;100469.42;1780452;80;20999;-83
2023/09/23 00:10:20;;;;;;;11.28;6.97;;;;;;;19.61;64.36;100476.59;1780385;80;21446;-83
2023/09/23 00:12:50;;;;;;;9.00;7.05;;;;;;;19.57;64.51;100473.19;1780325;80;21437;-83
2023/09/23 00:15:20;;;;;;;14.75;7.30;;;;;;;19.53;64.68;100474.80;1780351;80;21474;-82
2023/09/23 00:17:53;;;;;;;13.75;7.05;;;;;;;19.46;64.90;100475.45;1780519;80;21074;-85
2023/09/23 00:20:22;;;;;;;12.93;7.50;;;;;;;19.41;65.19;100479.55;1780435;80;21046;-82
2023/09/23 00:22:52;;;;;;;13.08;6.90;;;;;;;19.37;65.44;100481.15;1780518;80;21019;-83
2023/09/23 00:25:23;;;;;;;14.68;7.42;;;;;;;19.30;65.68;100482.16;1780636;80;21042;-83
2023/09/23 00:27:53;;;;;;;12.73;7.20;;;;;;;19.22;65.97;100489.53;1780754;80;21027;-82
2023/09/23 00:30:26;;;;;;;11.03;7.40;;;;;;;19.16;66.41;100493.87;1780618;80;21010;-84
2023/09/23 00:32:56;;;;;;;16.17;7.53;;;;;;;19.08;66.71;100490.95;1780736;80;21077;-82
2023/09/23 00:35:28;;;;;;;11.83;7.70;;;;;;;19.06;66.98;100492.30;1780542;80;21481;-80
2023/09/23 00:37:57;;;;;;;11.50;8.08;;;;;;;19.05;67.11;100486.45;1781622;80;21086;-84
2023/09/23 00:40:32;;;;;;;12.68;8.10;;;;;;;19.07;67.15;100486.50;1780303;80;21484;-83
2023/09/23 00:43:05;;;;;;;14.87;8.35;;;;;;;19.09;67.21;100479.30;1780245;80;20983;-82
2023/09/23 00:45:35;;;;;;;13.48;9.08;;;;;;;19.09;67.28;100482.92;1780660;80;21464;-82
2023/09/23 00:48:08;;;;;;;11.97;8.35;;;;;;;19.08;67.40;100481.23;1780656;80;21043;-83
2023/09/23 00:50:38;;;;;;;16.25;8.35;;;;;;;19.08;67.47;100481.78;1780405;80;21031;-82
2023/09/23 00:53:08;;;;;;;12.63;7.92;;;;;;;19.06;67.53;100481.20;1780688;80;20995;-84
2023/09/23 00:55:42;;;;;;;13.40;8.50;;;;;;;19.06;67.54;100480.65;1781129;80;21462;-81
2023/09/23 00:58:14;;;;;;;12.63;8.28;;;;;;;19.03;67.60;100479.77;1780373;80;21054;-83
2023/09/23 01:00:48;;;;;;;15.23;8.30;;;;;;;18.99;67.56;100486.91;1780650;80;21476;-83
2023/09/23 01:03:15;;;;;;;12.82;8.28;;;;;;;18.97;67.67;100489.94;1761486;80;21058;-83
2023/09/23 01:05:46;;;;;;;15.43;7.92;;;;;;;18.96;67.71;100490.19;1780557;80;21047;-82
2023/09/23 01:08:29;;;;;;;12.50;7.70;;;;;;;18.97;67.70;100486.33;1780496;80;21068;-83
2023/09/23 01:10:53;;;;;;;14.70;8.00;;;;;;;18.97;67.67;100487.16;1780016;80;21024;-84
2023/09/23 01:13:24;;;;;;;10.50;7.50;;;;;;;18.99;67.57;100484.14;1780586;80;21022;-81
2023/09/23 01:15:54;;;;;;;15.90;8.40;;;;;;;19.00;67.45;100485.83;1780373;80;21007;-82
2023/09/23 01:18:23;;;;;;;12.20;7.53;;;;;;;19.00;67.44;100489.44;1780345;80;21018;-82
2023/09/23 01:20:56;;;;;;;10.40;7.65;;;;;;;18.98;67.47;100488.01;1780338;80;20987;-81
2023/09/23 01:23:23;;;;;;;13.03;7.87;;;;;;;18.97;67.54;100494.66;1780499;80;21038;-84
2023/09/23 01:25:53;;;;;;;9.45;7.75;;;;;;;18.95;67.60;100485.19;1780475;80;21018;-83
2023/09/23 01:28:22;;;;;;;11.43;7.65;;;;;;;18.95;67.68;100499.07;1780675;80;20979;-84
2023/09/23 01:30:52;;;;;;;15.45;7.65;;;;;;;18.93;67.81;100500.41;1780420;80;20998;-82
2023/09/23 01:33:22;;;;;;;9.68;7.40;;;;;;;18.91;68.04;100502.05;1780317;80;21042;-83
2023/09/23 01:35:57;;;;;;;13.43;7.97;;;;;;;18.92;68.17;100511.22;1780574;80;21054;-81
2023/09/23 01:38:24;;;;;;;17.32;7.58;;;;;;;18.96;68.22;100512.41;1780471;80;21022;-81
2023/09/23 01:40:54;;;;;;;14.38;7.45;;;;;;;18.96;68.20;100509.63;1780531;80;21030;-83
2023/09/23 01:43:23;;;;;;;13.75;7.87;;;;;;;18.93;68.24;100506.81;1780501;80;20987;-82
2023/09/23 01:46:02;;;;;;;10.50;7.45;;;;;;;18.88;68.46;100511.42;1780483;80;21006;-79
2023/09/23 01:48:26;;;;;;;13.10;7.70;;;;;;;18.80;68.75;100510.41;1780060;80;21046;-82
2023/09/23 01:51:02;;;;;;;14.80;8.38;;;;;;;18.76;68.93;100512.00;1780930;80;21022;-82
2023/09/23 01:53:28;;;;;;;12.65;7.92;;;;;;;18.71;69.01;100509.13;1780679;80;20971;-83
2023/09/23 01:55:58;;;;;;;10.78;7.50;;;;;;;18.66;69.04;100509.88;1761315;80;21454;-83
2023/09/23 01:58:27;;;;;;;11.65;7.70;;;;;;;18.63;68.94;100511.22;1780571;80;21481;-83
2023/09/23 02:00:58;;;;;;;11.00;7.33;;;;;;;18.63;68.79;100513.98;1780675;80;21030;-80
2023/09/23 02:03:29;;;;;;;11.48;7.87;;;;;;;18.63;68.43;100518.16;1780597;80;20991;-82
2023/09/23 02:05:58;;;;;;;13.90;8.53;;;;;;;18.61;68.12;100521.72;1761210;80;21043;-83
2023/09/23 02:08:29;;;;;;;17.27;9.63;;;;;;;18.59;67.97;100522.48;1781112;80;21007;-82
2023/09/23 02:10:58;;;;;;;17.57;9.23;;;;;;;18.56;67.84;100514.66;1780767;80;21030;-82
2023/09/23 02:13:28;;;;;;;17.87;8.95;;;;;;;18.54;67.68;100512.67;1780523;80;21062;-82
2023/09/23 02:15:58;;;;;;;17.55;8.48;;;;;;;18.55;67.55;100514.35;1780842;80;21042;-84
2023/09/23 02:18:27;;;;;;;16.87;8.48;;;;;;;18.58;67.22;100514.41;1789744;80;21026;-82
2023/09/23 02:20:56;;;;;;;13.88;8.40;;;;;;;18.58;66.98;100515.80;1793160;80;20963;-82
2023/09/23 02:23:25;;;;;;;14.63;8.35;;;;;;;18.58;66.79;100521.34;1792922;80;21507;-84
2023/09/23 02:25:54;;;;;;;14.35;8.43;;;;;;;18.57;66.66;100517.72;1793178;80;20990;-83
2023/09/23 02:28:24;;;;;;;13.50;8.28;;;;;;;18.56;66.56;100513.27;1793443;80;21058;-83
2023/09/23 02:30:54;;;;;;;15.35;8.15;;;;;;;18.54;66.49;100515.45;1793523;80;21460;-83
2023/09/23 02:33:24;;;;;;;11.90;7.92;;;;;;;18.47;66.55;100514.75;1793170;80;21038;-81
2023/09/23 02:35:53;;;;;;;11.30;7.80;;;;;;;18.42;66.65;100519.35;1793675;80;21523;-84
2023/09/23 02:38:23;;;;;;;12.43;7.67;;;;;;;18.35;66.57;100518.95;1793270;80;21407;-83
2023/09/23 02:40:58;;;;;;;12.37;7.83;;;;;;;18.32;66.55;100526.92;1793406;80;21434;-84
2023/09/23 02:43:28;;;;;;;14.80;7.87;;;;;;;18.30;66.43;100519.39;1762769;80;21029;-83
2023/09/23 02:45:58;;;;;;;14.10;7.40;;;;;;;18.28;66.36;100531.28;1794034;80;21062;-83
2023/09/23 02:48:28;;;;;;;11.57;7.33;;;;;;;18.27;66.32;100530.98;1793708;80;21456;-83
2023/09/23 02:51:00;;;;;;;13.05;7.15;;;;;;;18.27;66.21;100541.53;1793623;80;20983;-83
2023/09/23 02:53:30;;;;;;;14.00;8.13;;;;;;;18.24;66.32;100539.79;1793254;80;21008;-82
2023/09/23 02:56:06;;;;;;;14.60;7.35;;;;;;;18.23;66.33;100540.33;1793519;80;21014;-83
2023/09/23 02:58:38;;;;;;;16.73;7.72;;;;;;;18.23;66.33;100539.48;1793674;80;20994;-83
2023/09/23 03:01:14;;;;;;;10.32;7.42;;;;;;;18.21;66.26;100543.05;1793711;80;21389;-83
2023/09/23 03:03:40;;;;;;;14.85;7.75;;;;;;;18.19;66.33;100539.64;1735790;80;21018;-82
2023/09/23 03:06:10;;;;;;;11.97;7.10;;;;;;;18.20;66.34;100545.49;1794975;80;21030;-84
2023/09/23 03:08:43;;;;;;;15.10;6.70;;;;;;;18.21;66.24;100548.60;1794240;80;21030;-83
2023/09/23 03:11:13;;;;;;;12.50;6.80;;;;;;;18.18;66.13;100541.58;1795887;80;20986;-84
2023/09/23 03:13:43;;;;;;;11.83;7.35;;;;;;;18.19;66.12;100544.65;1796122;80;21002;-84
2023/09/23 03:16:14;;;;;;;13.70;7.47;;;;;;;18.22;66.06;100541.42;1795415;80;21468;-83
2023/09/23 03:19:10;;;;;;;16.15;7.37;;;;;;;18.24;65.96;100540.62;1769054;80;21027;-84
2023/09/23 03:21:26;;;;;;;12.10;7.20;;;;;;;18.26;65.90;100542.62;1755186;81;21086;-86
2023/09/23 03:23:55;;;;;;;14.73;7.35;;;;;;;18.26;65.78;100536.23;1757104;82;21100;-84
2023/09/23 03:26:23;;;;;;;15.28;7.20;;;;;;;18.26;65.71;100545.94;1756844;82;21523;-83
2023/09/23 03:28:52;;;;;;;14.78;8.00;;;;;;;18.26;65.70;100541.77;1757091;82;21026;-82
2023/09/23 03:31:23;;;;;;;13.85;7.80;;;;;;;18.24;65.83;100541.17;1757048;82;21054;-84
2023/09/23 03:33:55;;;;;;;16.55;7.40;;;;;;;18.23;65.90;100540.33;1756708;82;21513;-85
2023/09/23 03:36:25;;;;;;;14.05;7.47;;;;;;;18.22;65.96;100537.80;1756998;82;21576;-84
2023/09/23 03:38:54;;;;;;;13.28;7.92;;;;;;;18.22;66.06;100544.20;1756962;82;21069;-86
2023/09/23 03:41:24;;;;;;;11.28;7.67;;;;;;;18.23;66.12;100542.27;1757132;82;21046;-84
2023/09/23 03:43:53;;;;;;;13.08;7.20;;;;;;;18.17;66.33;100541.83;1757292;82;21112;-83
2023/09/23 03:46:22;;;;;;;14.05;7.55;;;;;;;18.11;66.51;100541.41;1756825;82;21543;-83
2023/09/23 03:48:51;;;;;;;12.58;7.80;;;;;;;18.05;66.73;100550.16;1757029;82;21145;-83
2023/09/23 03:51:22;;;;;;;17.00;8.40;;;;;;;18.04;66.87;100550.70;1757221;82;21086;-82
2023/09/23 03:53:51;;;;;;;14.53;8.00;;;;;;;18.00;67.08;100557.83;1756883;82;21494;-83
2023/09/23 03:56:24;;;;;;;17.27;8.68;;;;;;;17.96;67.30;100555.23;1757599;82;21450;-83
2023/09/23 03:58:57;;;;;;;14.30;7.92;;;;;;;17.93;67.51;100558.49;1757773;82;21106;-83
2023/09/23 04:01:26;;;;;;;16.57;8.85;;;;;;;17.91;67.64;100556.50;1759234;82;21153;-84
2023/09/23 04:03:56;;;;;;;14.20;8.38;;;;;;;17.86;67.82;100561.94;1757148;82;21109;-83
2023/09/23 04:06:26;;;;;;;16.02;9.18;;;;;;;17.84;68.07;100561.33;1756732;82;21532;-84
2023/09/23 04:08:58;;;;;;;13.62;8.18;;;;;;;17.83;68.24;100562.41;1756510;82;21082;-85
2023/09/23 04:11:27;;;;;;;20.62;8.93;;;;;;;17.81;68.36;100562.36;1756773;82;21031;-82
2023/09/23 04:13:58;;;;;;;13.48;8.33;;;;;;;17.80;68.48;100558.74;1756650;82;21058;-84
2023/09/23 04:16:27;;;;;;;14.95;9.03;;;;;;;17.79;68.58;100554.28;1756575;82;21508;-81
2023/09/23 04:18:56;;;;;;;15.40;8.75;;;;;;;17.80;68.62;100558.74;1776487;80;21046;-85
2023/09/23 04:21:25;;;;;;;14.65;8.13;;;;;;;17.80;68.54;100555.97;1788185;80;21049;-83
2023/09/23 04:23:55;;;;;;;14.20;8.13;;;;;;;17.82;68.47;100563.50;1788400;80;21006;-83
2023/09/23 04:26:25;;;;;;;15.60;7.42;;;;;;;17.83;68.48;100565.19;1788059;80;21503;-85
2023/09/23 04:28:55;;;;;;;15.10;8.03;;;;;;;17.82;68.59;100564.89;1788774;80;21018;-82
2023/09/23 04:31:24;;;;;;;12.85;8.13;;;;;;;17.82;68.54;100562.12;1788618;80;21026;-84
2023/09/23 04:33:53;;;;;;;17.60;8.13;;;;;;;17.82;68.59;100573.20;1788288;80;21433;-85
2023/09/23 04:36:22;;;;;;;18.75;8.10;;;;;;;17.82;68.58;100579.30;1787769;80;21074;-84
2023/09/23 04:38:51;;;;;;;14.90;8.75;;;;;;;17.85;68.51;100579.65;1788114;80;20978;-84
2023/09/23 04:41:20;;;;;;;15.72;8.20;;;;;;;17.89;68.36;100581.40;1788573;80;20987;-83
2023/09/23 04:43:48;;;;;;;13.53;8.00;;;;;;;17.92;68.21;100583.14;1789135;80;21049;-83
2023/09/23 04:46:17;;;;;;;14.73;8.40;;;;;;;17.96;68.09;100590.44;1788679;80;21010;-82
2023/09/23 04:48:46;;;;;;;16.17;8.20;;;;;;;17.99;68.05;100585.25;1788866;80;21018;-86
2023/09/23 04:51:17;;;;;;;16.67;8.68;;;;;;;18.01;68.05;100591.40;1788063;80;21050;-84
2023/09/23 04:53:46;;;;;;;12.65;8.83;;;;;;;18.02;68.10;100590.31;1787923;80;21026;-85
2023/09/23 04:56:17;;;;;;;18.02;9.73;;;;;;;18.05;67.97;100595.38;1766665;80;21073;-83
2023/09/23 04:58:46;;;;;;;18.80;8.93;;;;;;;18.04;67.84;100586.75;1787938;80;21026;-84
2023/09/23 05:01:16;;;;;;;17.98;9.35;;;;;;;18.05;67.71;100596.76;1787983;80;21042;-84
2023/09/23 05:03:45;;;;;;;15.38;8.70;;;;;;;18.04;67.53;100589.53;1788101;80;21026;-84
2023/09/23 05:06:15;;;;;;;17.92;9.35;;;;;;;18.05;67.33;100600.08;1788703;80;21029;-86
2023/09/23 05:08:45;;;;;;;18.70;8.33;;;;;;;18.04;67.06;100602.00;1788789;80;21046;-84
2023/09/23 05:11:17;;;;;;;15.68;8.73;;;;;;;18.04;66.87;100597.84;1788757;80;21402;-83
2023/09/23 05:13:47;;;;;;;16.73;8.73;;;;;;;18.05;66.70;100598.69;1788408;80;21018;-83
2023/09/23 05:16:16;;;;;;;17.90;9.03;;;;;;;18.07;66.67;100599.30;1788572;80;21383;-84
2023/09/23 05:18:46;;;;;;;14.10;8.43;;;;;;;18.05;66.71;100601.46;1785238;80;21141;-84
2023/09/23 05:21:18;;;;;;;18.67;8.43;;;;;;;18.08;66.68;100600.13;1781524;80;21000;-85
2023/09/23 05:23:49;;;;;;;14.23;8.05;;;;;;;18.10;66.35;100597.42;1781577;80;20998;-85
2023/09/23 05:26:19;;;;;;;13.80;7.75;;;;;;;18.11;66.10;100603.27;1781796;80;21426;-84
2023/09/23 05:28:50;;;;;;;17.30;9.45;;;;;;;18.15;65.78;100603.08;1762034;80;20979;-85
2023/09/23 05:31:19;;;;;;;17.62;7.78;;;;;;;18.18;65.54;100601.21;1782524;80;21050;-83
2023/09/23 05:33:48;;;;;;;15.88;7.83;;;;;;;18.21;65.39;100610.46;1782409;80;21420;-84
2023/09/23 05:36:17;;;;;;;19.87;11.05;;;;;;;18.24;65.32;100613.30;1782486;80;21047;-83
2023/09/23 05:38:47;;;;;;;15.05;8.95;;;;;;;18.26;65.39;100613.89;1783295;80;21493;-82
2023/09/23 05:41:16;;;;;;;16.37;7.95;;;;;;;18.28;65.52;100610.33;1781881;80;21039;-84
2023/09/23 05:43:46;;;;;;;14.60;8.23;;;;;;;18.31;65.54;100609.84;1782393;80;21054;-85
2023/09/23 05:46:15;;;;;;;16.65;7.75;;;;;;;18.35;65.42;100606.89;1762721;80;20999;-83
2023/09/23 05:48:48;;;;;;;13.90;7.95;;;;;;;18.38;65.36;100610.56;1781811;80;20971;-85
2023/09/23 05:51:16;;;;;;;14.07;7.67;;;;;;;18.44;65.30;100612.91;1781307;80;21033;-84
2023/09/23 05:53:46;;;;;;;15.80;8.38;;;;;;;18.47;65.18;100608.25;1781295;80;21515;-86
2023/09/23 05:56:16;;;;;;;15.30;8.23;;;;;;;18.50;64.98;100607.22;1781477;80;21038;-85
2023/09/23 05:58:46;;;;;;;12.30;8.00;;;;;;;18.55;64.78;100605.94;1781490;80;21054;-85
2023/09/23 06:01:15;;;;;;;18.07;7.83;;;;;;;18.58;64.55;100613.77;1781391;80;20978;-84
2023/09/23 06:03:45;;;;;;;16.02;7.67;;;;;;;18.59;64.29;100618.23;1781206;80;21023;-84
2023/09/23 06:06:15;;;;;;;16.37;7.85;;;;;;;18.63;64.17;100625.55;1754969;80;21030;-84
2023/09/23 06:08:52;;;;;;;17.98;8.23;;;;;;;18.66;64.13;100622.29;1781336;80;21002;-83
2023/09/23 06:11:19;;;;;;;19.48;8.40;;;;;;;18.69;64.02;100625.41;1781188;80;21046;-83
2023/09/23 06:13:48;;;;;;;15.88;7.70;;;;;;;18.71;63.87;100619.62;1781320;80;20967;-83
2023/09/23 06:16:17;;;;;;;19.17;7.80;;;;;;;18.74;63.73;100625.23;1781151;80;21078;-85
2023/09/23 06:18:46;;;;;;;12.85;7.33;;;;;;;18.77;63.69;100624.73;1752828;81;21563;-84
2023/09/23 06:21:15;;;;;;;13.58;7.50;;;;;;;18.80;63.65;100632.02;1751445;81;21066;-82
2023/09/23 06:23:46;;;;;;;15.72;7.55;;;;;;;18.85;63.58;100632.67;1752173;82;21550;-85
2023/09/23 06:26:17;;;;;;;12.23;7.42;;;;;;;18.90;63.43;100632.80;1753670;81;21046;-82
2023/09/23 06:28:47;;;;;;;10.38;6.47;;;;;;;18.93;63.24;100635.94;1724374;82;21068;-85
2023/09/23 06:31:16;;;;;;;14.07;7.37;;;;;;;18.99;63.12;100634.09;1741819;82;21086;-85
2023/09/23 06:33:45;;;;;;;13.53;7.25;;;;;;;19.06;62.98;100633.95;1740558;82;21322;-81
2023/09/23 06:36:14;;;;;;;14.47;6.30;;;;;;;19.10;62.61;100630.43;1740408;82;21114;-86
2023/09/23 06:38:44;;;;;;;12.07;6.97;;;;;;;19.15;62.32;100631.92;1740512;81;21572;-84
2023/09/23 06:41:13;;;;;;;15.58;6.78;;;;;;;19.21;62.23;100643.42;1740500;81;21011;-83
2023/09/23 06:43:42;;;;;;;15.43;7.17;;;;;;;19.28;62.12;100641.88;1740915;82;21003;-84
2023/09/23 06:46:11;;;;;;;12.40;6.85;;;;;;;19.35;61.78;100651.45;1740691;82;21532;-84
2023/09/23 06:48:42;;;;;;;15.25;7.00;;;;;;;19.41;61.23;100654.62;1740773;81;21015;-85
2023/09/23 06:51:12;;;;;;;17.15;7.03;;;;;;;19.46;61.04;100651.94;1740889;82;21067;-84
2023/09/23 06:53:42;;;;;;;17.10;7.22;;;;;;;19.53;60.80;100655.46;1741145;81;21075;-83
2023/09/23 06:56:14;;;;;;;10.78;6.60;;;;;;;19.60;60.76;100657.53;1741256;82;21572;-83
2023/09/23 06:58:44;;;;;;;12.50;6.92;;;;;;;19.68;60.54;100662.68;1740958;81;21059;-82
2023/09/23 07:01:13;;;;;;;14.00;7.25;;;;;;;19.75;60.55;100666.14;1741535;81;21023;-85
2023/09/23 07:03:42;;;;;;;15.68;6.65;;;;;;;19.82;60.39;100661.25;1742631;82;21023;-85
2023/09/23 07:06:13;;;;;;;18.02;7.90;;;;;;;19.88;60.41;100663.02;1741331;82;21519;-85
2023/09/23 07:08:42;;;;;;;12.80;6.85;;;;;;;19.94;60.58;100670.91;1741582;82;21007;-85
2023/09/23 07:11:15;;;;;;;15.28;7.55;;;;;;;20.01;60.63;100674.36;1741414;82;21066;-84
2023/09/23 07:13:44;;;;;;;12.15;7.15;;;;;;;20.08;60.64;100667.23;1740850;82;21035;-85
2023/09/23 07:16:14;;;;;;;11.93;7.10;;;;;;;20.13;60.74;100665.92;1740764;81;21091;-85
2023/09/23 07:18:45;;;;;;;16.48;7.35;;;;;;;20.20;60.72;100670.25;1728548;80;21054;-83
2023/09/23 07:21:14;;;;;;;12.78;7.20;;;;;;;20.27;60.65;100667.28;1785252;80;21003;-85
2023/09/23 07:23:43;;;;;;;11.25;7.03;;;;;;;20.34;60.74;100676.30;1785839;80;21025;-85
2023/09/23 07:26:21;;;;;;;20.52;8.28;;;;;;;20.42;60.64;100669.48;1786035;80;21434;-83
2023/09/23 07:28:51;;;;;;;14.53;6.95;;;;;;;20.49;60.74;100670.14;1784813;80;21482;-81
2023/09/23 07:31:20;;;;;;;10.00;7.47;;;;;;;20.57;60.61;100673.33;1784496;80;21006;-81
2023/09/23 07:33:49;;;;;;;13.45;7.10;;;;;;;20.65;60.52;100675.38;1784433;80;21003;-81
2023/09/23 07:36:18;;;;;;;14.58;7.22;;;;;;;20.75;60.48;100672.72;1784221;80;21010;-82
2023/09/23 07:38:47;;;;;;;11.33;7.10;;;;;;;20.82;60.41;100673.41;1764916;80;21122;-83
2023/09/23 07:41:17;;;;;;;10.72;7.03;;;;;;;20.90;60.19;100667.38;1784412;80;21030;-83
2023/09/23 07:43:48;;;;;;;15.13;7.05;;;;;;;21.00;60.20;100666.66;1784237;80;21042;-82
2023/09/23 07:46:17;;;;;;;13.78;7.45;;;;;;;21.19;60.23;100657.70;1784161;80;21030;-81
2023/09/23 07:48:47;;;;;;;16.95;7.58;;;;;;;21.53;59.82;100658.11;1784113;80;21015;-82
2023/09/23 07:51:15;;;;;;;30.72;19.20;;;;;;;21.91;59.18;100657.06;1786886;79;21054;-84
2023/09/23 07:53:44;;;;;;;18.00;9.03;;;;;;;22.35;58.08;100651.58;1812459;79;21065;-74
2023/09/23 07:56:14;;;;;;;11.65;7.55;;;;;;;22.78;56.81;100652.41;1808035;79;21453;-69
2023/09/23 07:58:44;;;;;;;13.80;7.62;;;;;;;23.20;55.78;100655.66;1813968;78;21210;-69
2023/09/23 08:01:13;;;;;;;13.10;7.40;;;;;;;23.68;55.11;100662.25;1811558;78;21028;-69
2023/09/23 08:03:42;;;;;;;14.38;6.97;;;;;;;24.18;53.52;100666.19;1832494;78;21067;-70
2023/09/23 08:06:12;;;;;;;15.03;6.95;;;;;;;24.61;52.47;100656.89;1747969;81;21007;-68
2023/09/23 08:08:41;;;;;;;12.40;6.33;;;;;;;25.07;51.36;100649.77;1783668;80;21009;-69
2023/09/23 08:11:13;;;;;;;13.62;6.80;;;;;;;25.44;50.40;100650.70;1783646;80;21025;-72
2023/09/23 08:13:44;;;;;;;14.85;7.00;;;;;;;25.64;49.43;100644.11;1764120;80;21081;-72
2023/09/23 08:16:14;;;;;;;13.38;7.08;;;;;;;25.78;49.28;100651.61;1785456;80;21122;-70
2023/09/23 08:18:43;;;;;;;12.20;7.03;;;;;;;26.02;48.68;100640.48;1785365;80;21113;-71
2023/09/23 08:21:12;;;;;;;12.68;6.20;;;;;;;26.30;47.94;100642.18;1756437;81;21039;-69
2023/09/23 08:23:42;;;;;;;14.80;7.03;;;;;;;26.55;47.76;100648.97;1776055;81;21074;-70
2023/09/23 08:26:12;;;;;;;11.70;6.70;;;;;;;26.97;46.04;100651.02;1776062;81;21038;-68
2023/09/23 08:28:42;;;;;;;12.30;6.37;;;;;;;26.97;46.04;100651.02;1693348;84;21066;-69
2023/09/23 08:31:12;;;;;;;11.57;6.10;;;;;;;27.12;45.67;100645.79;1693334;84;21038;-69
2023/09/23 08:33:43;;;;;;;11.10;6.28;;;;;;;27.28;45.64;100647.25;1678587;84;21073;-69
2023/09/23 08:36:14;;;;;;;10.95;5.70;;;;;;;27.52;44.75;100646.38;1701049;84;21557;-69
2023/09/23 08:38:45;;;;;;;10.70;5.97;;;;;;;27.69;44.20;100641.06;1701040;84;21108;-70
2023/09/23 08:41:16;;;;;;;16.90;6.35;;;;;;;27.78;43.82;100635.84;1701261;84;21117;-69
2023/09/23 08:43:45;;;;;;;12.80;6.25;;;;;;;27.80;43.69;100639.75;1701204;84;21118;-69
2023/09/23 08:46:15;;;;;;;9.53;5.95;;;;;;;27.76;43.47;100642.34;1701023;84;21080;-69
2023/09/23 08:48:43;;;;;;;11.73;6.20;;;;;;;27.63;43.53;100638.06;1701018;84;21049;-73
2023/09/23 08:51:13;;;;;;;11.43;6.20;;;;;;;27.47;43.48;100642.49;1701274;84;21061;-72
2023/09/23 08:53:42;;;;;;;14.07;6.67;;;;;;;27.31;43.83;100625.56;1757677;80;21010;-74
2023/09/23 08:56:12;;;;;;;14.05;6.53;;;;;;;27.15;44.10;100626.33;1787231;80;21034;-73
2023/09/23 08:58:43;;;;;;;14.63;7.15;;;;;;;27.01;44.28;100623.16;1787041;80;21074;-71
2023/09/23 09:01:13;;;;;;;12.00;6.75;;;;;;;26.80;44.51;100624.80;1787193;80;21042;-73
2023/09/23 09:03:42;;;;;;;11.65;6.50;;;;;;;26.61;44.85;100625.28;1787183;80;21017;-73
2023/09/23 09:06:19;;;;;;;9.08;5.70;;;;;;;26.52;45.04;100622.86;1787167;80;21494;-72
2023/09/23 09:08:48;;;;;;;14.25;6.35;;;;;;;26.43;45.36;100625.48;1787127;80;21086;-73
2023/09/23 09:11:24;;;;;;;13.15;6.67;;;;;;;26.37;45.42;100630.06;1787579;80;21050;-72
2023/09/23 09:13:53;;;;;;;15.98;6.37;;;;;;;26.28;45.36;100631.24;1787141;80;21551;-71
2023/09/23 09:16:22;;;;;;;12.65;6.65;;;;;;;26.12;45.83;100619.89;1787260;80;21102;-74
2023/09/23 09:18:52;;;;;;;12.65;6.33;;;;;;;26.05;46.21;100620.23;1787609;80;21030;-71
2023/09/23 09:21:21;;;;;;;13.55;6.70;;;;;;;25.98;46.17;100622.52;1785257;78;21051;-72
2023/09/23 09:23:50;;;;;;;12.80;6.37;;;;;;;25.89;46.45;100625.12;1781216;80;21081;-70
2023/09/23 09:26:22;;;;;;;12.30;6.97;;;;;;;25.81;46.41;100627.73;1781289;80;21010;-73
2023/09/23 09:28:51;;;;;;;19.17;15.72;;;;;;;25.75;46.56;100621.88;1781227;79;21058;-72
2023/09/23 09:31:20;;;;;;;15.18;8.18;;;;;;;25.72;46.65;100628.08;1781374;80;21066;-71
2023/09/23 09:33:50;;;;;;;14.47;7.03;;;;;;;25.66;46.72;100628.69;1781161;80;21046;-72
2023/09/23 09:36:19;;;;;;;15.80;6.03;;;;;;;25.63;46.90;100622.78;1781071;79;21038;-71
2023/09/23 09:38:54;;;;;;;12.80;6.25;;;;;;;25.62;46.93;100633.17;1781140;80;21085;-71
2023/09/23 09:41:30;;;;;;;12.75;5.75;;;;;;;25.57;47.29;100624.23;1781047;80;21069;-71
2023/09/23 09:44:04;;;;;;;13.40;7.53;;;;;;;25.59;47.34;100628.98;1777612;80;21054;-71
2023/09/23 09:46:33;;;;;;;13.10;6.40;;;;;;;25.60;47.15;100626.45;1781324;80;21035;-70
2023/09/23 09:49:02;;;;;;;14.87;6.67;;;;;;;25.61;47.06;100624.48;1785062;79;21159;-71
2023/09/23 09:51:33;;;;;;;13.93;6.60;;;;;;;25.58;46.94;100623.10;1781080;80;21516;-73
2023/09/23 09:54:04;;;;;;;10.95;6.78;;;;;;;25.53;47.06;100629.31;1769907;80;21054;-73
2023/09/23 09:56:33;;;;;;;13.28;6.30;;;;;;;25.48;47.37;100624.58;1750220;82;21030;-72
2023/09/23 09:59:03;;;;;;;10.60;5.95;;;;;;;25.48;47.37;100627.38;1750200;82;21085;-72
2023/09/23 10:01:35;;;;;;;12.18;6.15;;;;;;;25.48;47.20;100625.98;1750280;82;21038;-74
2023/09/23 10:04:12;;;;;;;10.82;6.30;;;;;;;25.48;47.22;100623.17;1750179;82;21102;-73
2023/09/23 10:06:43;;;;;;;13.28;6.10;;;;;;;25.50;47.21;100620.91;1772682;80;21023;-72
2023/09/23 10:09:17;;;;;;;12.60;6.50;;;;;;;25.51;47.18;100618.95;1670387;84;21043;-71
2023/09/23 10:11:55;;;;;;;12.50;6.30;;;;;;;25.52;47.21;100624.84;1693178;84;21090;-71
2023/09/23 10:14:26;;;;;;;9.20;6.30;;;;;;;25.51;47.10;100632.98;1768439;81;21860;-72
2023/09/23 10:17:03;;;;;;;11.78;6.12;;;;;;;25.50;47.34;100628.50;1768399;81;21067;-67
2023/09/23 10:19:39;;;;;;;9.10;6.25;;;;;;;25.50;47.38;100621.48;1757009;78;21068;-72
2023/09/23 10:22:13;;;;;;;9.05;6.20;;;;;;;25.48;47.32;100623.17;1831886;78;21035;-72
2023/09/23 10:24:43;;;;;;;13.22;6.80;;;;;;;25.47;47.02;100624.30;1832699;78;21064;-71
2023/09/23 10:27:13;;;;;;;12.33;5.83;;;;;;;25.44;47.19;100631.06;1767857;81;21039;-73
2023/09/23 10:29:45;;;;;;;8.13;6.03;;;;;;;25.43;46.79;100639.20;1767891;81;21067;-71
2023/09/23 10:32:16;;;;;;;8.08;6.05;;;;;;;25.39;46.92;100638.11;1779565;80;21038;-72
2023/09/23 10:34:53;;;;;;;13.70;6.12;;;;;;;25.37;47.11;100626.34;1748786;81;21083;-72
2023/09/23 10:37:34;;;;;;;11.22;6.08;;;;;;;25.34;47.30;100626.33;1779708;80;21032;-72
2023/09/23 10:40:13;;;;;;;17.10;6.33;;;;;;;25.35;47.18;100625.77;1749201;81;21106;-71
2023/09/23 10:42:48;;;;;;;11.68;5.62;;;;;;;25.34;47.17;100629.70;1779387;80;21487;-73
2023/09/23 10:45:19;;;;;;;10.65;6.33;;;;;;;25.36;46.97;100621.30;1779600;80;21034;-72
2023/09/23 10:47:48;;;;;;;9.98;5.95;;;;;;;25.37;47.14;100617.36;1779533;80;21048;-72
2023/09/23 10:50:18;;;;;;;12.90;6.05;;;;;;;25.37;47.08;100609.52;1779487;80;21011;-72
2023/09/23 10:52:47;;;;;;;10.82;5.83;;;;;;;25.39;47.04;100606.69;1779538;80;21078;-71
2023/09/23 10:55:16;;;;;;;10.72;5.78;;;;;;;25.41;46.97;100603.02;1767845;81;21055;-72
2023/09/23 10:57:45;;;;;;;10.25;5.80;;;;;;;25.42;47.01;100594.05;1757987;80;21063;-73
2023/09/23 11:00:20;;;;;;;13.10;5.58;;;;;;;25.43;46.88;100597.96;1779434;80;21020;-65
2023/09/23 11:02:52;;;;;;;10.72;5.83;;;;;;;25.47;46.73;100598.22;1779555;80;21166;-71
2023/09/23 11:05:23;;;;;;;14.45;7.17;;;;;;;25.46;46.48;100598.78;1764907;81;21050;-71
2023/09/23 11:07:55;;;;;;;9.70;6.05;;;;;;;25.47;46.61;100594.84;1785415;80;21093;-72
2023/09/23 11:10:25;;;;;;;11.80;5.90;;;;;;;25.49;46.51;100601.00;1785362;80;21054;-72
2023/09/23 11:12:55;;;;;;;11.70;6.12;;;;;;;25.52;46.41;100596.20;1764335;80;21078;-74
2023/09/23 11:15:25;;;;;;;12.15;5.37;;;;;;;25.56;46.40;100597.30;1785516;80;21483;-71
2023/09/23 11:17:54;;;;;;;8.35;5.72;;;;;;;25.59;46.45;100585.48;1754491;82;21548;-73
2023/09/23 11:20:31;;;;;;;10.78;6.08;;;;;;;25.65;46.25;100582.08;1737042;80;21059;-74
2023/09/23 11:23:05;;;;;;;15.30;5.42;;;;;;;25.71;46.08;100577.28;1756177;80;21053;-73
2023/09/23 11:25:46;;;;;;;9.58;5.62;;;;;;;25.75;45.78;100574.16;1788349;80;21035;-72
2023/09/23 11:28:19;;;;;;;6.67;5.10;;;;;;;25.79;45.57;100573.28;1788542;80;21303;-70
2023/09/23 11:30:50;;;;;;;11.53;5.12;;;;;;;25.81;45.24;100576.63;1788570;80;21093;-72